sensor_id;sensor_type;location;lat;lon;timestamp;temperature;humidity
53294;DHT22;39181;53.440;5.644;2023-08-20T00:00:52;17.00;99.90
53294;DHT22;39181;53.440;5.644;2023-08-20T00:03:18;17.00;99.90
53294;DHT22;39181;53.440;5.644;2023-08-20T00:05:44;17.00;99.90
53294;DHT22;39181;53.440;5.644;2023-08-20T00:08:10;17.00;99.90
53294;DHT22;39181;53.440;5.644;2023-08-20T00:10:35;17.10;99.90
53294;DHT22;39181;53.440;5.644;2023-08-20T00:13:01;17.00;99.90
53294;DHT22;39181;53.440;5.644;2023-08-20T00:15:27;17.00;99.90
53294;DHT22;39181;53.440;5.644;2023-08-20T00:17:54;17.00;99.90
53294;DHT22;39181;53.440;5.644;2023-08-20T00:20:21;17.00;99.90
53294;DHT22;39181;53.440;5.644;2023-08-20T00:22:47;17.00;99.90
53294;DHT22;39181;53.440;5.644;2023-08-20T00:25:13;17.00;99.90
53294;DHT22;39181;53.440;5.644;2023-08-20T00:27:40;17.00;99.90
53294;DHT22;39181;53.440;5.644;2023-08-20T00:30:06;17.00;99.90
53294;DHT22;39181;53.440;5.644;2023-08-20T00:32:32;17.00;99.90
53294;DHT22;39181;53.440;5.644;2023-08-20T00:34:58;17.00;99.90
53294;DHT22;39181;53.440;5.644;2023-08-20T00:37:23;17.00;99.90
53294;DHT22;39181;53.440;5.644;2023-08-20T00:39:49;17.00;99.90
53294;DHT22;39181;53.440;5.644;2023-08-20T00:42:15;17.00;99.90
53294;DHT22;39181;53.440;5.644;2023-08-20T00:44:41;17.00;99.90
53294;DHT22;39181;53.440;5.644;2023-08-20T00:47:09;17.00;99.90
53294;DHT22;39181;53.440;5.644;2023-08-20T00:49:35;17.00;99.90
53294;DHT22;39181;53.440;5.644;2023-08-20T00:52:01;17.00;99.90
53294;DHT22;39181;53.440;5.644;2023-08-20T00:54:28;17.00;99.90
53294;DHT22;39181;53.440;5.644;2023-08-20T00:56:54;17.00;99.90
53294;DHT22;39181;53.440;5.644;2023-08-20T00:59:20;17.10;99.90
53294;DHT22;39181;53.440;5.644;2023-08-20T01:01:46;17.00;99.90
53294;DHT22;39181;53.440;5.644;2023-08-20T01:04:12;17.00;99.90
53294;DHT22;39181;53.440;5.644;2023-08-20T01:09:50;17.00;99.90
53294;DHT22;39181;53.440;5.644;2023-08-20T01:12:20;17.00;99.90
53294;DHT22;39181;53.440;5.644;2023-08-20T01:14:47;17.00;99.90
53294;DHT22;39181;53.440;5.644;2023-08-20T01:17:13;17.00;99.90
53294;DHT22;39181;53.440;5.644;2023-08-20T01:19:38;16.90;99.90
53294;DHT22;39181;53.440;5.644;2023-08-20T01:22:38;17.00;99.90
53294;DHT22;39181;53.440;5.644;2023-08-20T01:30:39;16.90;99.90
53294;DHT22;39181;53.440;5.644;2023-08-20T01:33:05;17.00;99.90
53294;DHT22;39181;53.440;5.644;2023-08-20T01:35:31;17.00;99.90
53294;DHT22;39181;53.440;5.644;2023-08-20T01:37:57;17.00;99.90
53294;DHT22;39181;53.440;5.644;2023-08-20T01:40:23;17.00;99.90
53294;DHT22;39181;53.440;5.644;2023-08-20T01:42:48;17.00;99.90
53294;DHT22;39181;53.440;5.644;2023-08-20T01:45:14;17.10;99.90
53294;DHT22;39181;53.440;5.644;2023-08-20T01:47:39;17.00;99.90
53294;DHT22;39181;53.440;5.644;2023-08-20T01:50:05;17.10;99.90
53294;DHT22;39181;53.440;5.644;2023-08-20T01:52:31;17.10;99.90
53294;DHT22;39181;53.440;5.644;2023-08-20T01:54:57;17.00;99.90
53294;DHT22;39181;53.440;5.644;2023-08-20T01:57:23;17.10;99.90
53294;DHT22;39181;53.440;5.644;2023-08-20T01:59:49;17.10;99.90
53294;DHT22;39181;53.440;5.644;2023-08-20T02:02:14;17.10;99.90
53294;DHT22;39181;53.440;5.644;2023-08-20T02:04:40;17.00;99.90
53294;DHT22;39181;53.440;5.644;2023-08-20T02:07:05;17.10;99.90
53294;DHT22;39181;53.440;5.644;2023-08-20T02:09:31;17.00;99.90
53294;DHT22;39181;53.440;5.644;2023-08-20T02:11:57;17.00;99.90
53294;DHT22;39181;53.440;5.644;2023-08-20T02:14:22;17.00;99.90
53294;DHT22;39181;53.440;5.644;2023-08-20T02:16:48;17.00;99.90
53294;DHT22;39181;53.440;5.644;2023-08-20T02:19:14;16.80;99.90
53294;DHT22;39181;53.440;5.644;2023-08-20T02:21:40;17.00;99.90
53294;DHT22;39181;53.440;5.644;2023-08-20T02:24:06;17.00;99.90
53294;DHT22;39181;53.440;5.644;2023-08-20T02:26:32;17.00;99.90
53294;DHT22;39181;53.440;5.644;2023-08-20T02:28:57;17.00;99.90
53294;DHT22;39181;53.440;5.644;2023-08-20T02:31:23;17.00;99.90
53294;DHT22;39181;53.440;5.644;2023-08-20T02:33:49;17.00;99.90
53294;DHT22;39181;53.440;5.644;2023-08-20T02:36:14;16.90;99.90
53294;DHT22;39181;53.440;5.644;2023-08-20T02:38:40;16.90;99.90
53294;DHT22;39181;53.440;5.644;2023-08-20T02:41:05;16.90;99.90
53294;DHT22;39181;53.440;5.644;2023-08-20T02:43:31;16.90;99.90
53294;DHT22;39181;53.440;5.644;2023-08-20T02:45:56;16.90;99.90
53294;DHT22;39181;53.440;5.644;2023-08-20T02:48:22;16.90;99.90
53294;DHT22;39181;53.440;5.644;2023-08-20T02:50:53;16.90;99.90
53294;DHT22;39181;53.440;5.644;2023-08-20T02:53:19;16.90;99.90
53294;DHT22;39181;53.440;5.644;2023-08-20T02:55:45;16.90;99.90
53294;DHT22;39181;53.440;5.644;2023-08-20T02:58:10;16.80;99.90
53294;DHT22;39181;53.440;5.644;2023-08-20T03:00:36;16.70;99.90
53294;DHT22;39181;53.440;5.644;2023-08-20T03:03:02;16.70;99.90
53294;DHT22;39181;53.440;5.644;2023-08-20T03:05:31;16.70;99.90
53294;DHT22;39181;53.440;5.644;2023-08-20T03:07:57;16.70;99.90
53294;DHT22;39181;53.440;5.644;2023-08-20T03:10:24;16.70;99.90
53294;DHT22;39181;53.440;5.644;2023-08-20T03:12:49;16.70;99.90
53294;DHT22;39181;53.440;5.644;2023-08-20T03:15:15;16.70;99.90
53294;DHT22;39181;53.440;5.644;2023-08-20T03:17:40;16.70;99.90
53294;DHT22;39181;53.440;5.644;2023-08-20T03:20:06;16.70;99.90
53294;DHT22;39181;53.440;5.644;2023-08-20T03:22:33;16.70;99.90
53294;DHT22;39181;53.440;5.644;2023-08-20T03:24:58;16.70;99.90
53294;DHT22;39181;53.440;5.644;2023-08-20T03:27:24;16.60;99.90
53294;DHT22;39181;53.440;5.644;2023-08-20T03:29:51;16.60;99.90
53294;DHT22;39181;53.440;5.644;2023-08-20T03:32:17;16.60;99.90
53294;DHT22;39181;53.440;5.644;2023-08-20T03:34:43;16.50;99.90
53294;DHT22;39181;53.440;5.644;2023-08-20T03:37:08;16.60;99.90
53294;DHT22;39181;53.440;5.644;2023-08-20T03:39:34;16.50;99.90
53294;DHT22;39181;53.440;5.644;2023-08-20T03:41:59;16.60;99.90
53294;DHT22;39181;53.440;5.644;2023-08-20T03:44:25;16.50;99.90
53294;DHT22;39181;53.440;5.644;2023-08-20T03:46:51;16.60;99.90
53294;DHT22;39181;53.440;5.644;2023-08-20T03:49:16;16.60;99.90
53294;DHT22;39181;53.440;5.644;2023-08-20T03:51:42;16.50;99.90
53294;DHT22;39181;53.440;5.644;2023-08-20T03:54:08;16.60;99.90
53294;DHT22;39181;53.440;5.644;2023-08-20T03:56:34;16.60;99.90
53294;DHT22;39181;53.440;5.644;2023-08-20T03:59:00;16.60;99.90
53294;DHT22;39181;53.440;5.644;2023-08-20T04:01:25;16.70;99.90
53294;DHT22;39181;53.440;5.644;2023-08-20T04:03:51;16.60;99.90
53294;DHT22;39181;53.440;5.644;2023-08-20T04:06:16;16.70;99.90
53294;DHT22;39181;53.440;5.644;2023-08-20T04:08:42;16.70;99.90
53294;DHT22;39181;53.440;5.644;2023-08-20T04:11:08;16.70;99.90
53294;DHT22;39181;53.440;5.644;2023-08-20T04:13:33;16.70;99.90
53294;DHT22;39181;53.440;5.644;2023-08-20T04:15:59;16.70;99.90
53294;DHT22;39181;53.440;5.644;2023-08-20T04:18:25;16.70;99.90
53294;DHT22;39181;53.440;5.644;2023-08-20T04:20:53;16.70;99.90
53294;DHT22;39181;53.440;5.644;2023-08-20T04:23:19;16.70;99.90
53294;DHT22;39181;53.440;5.644;2023-08-20T04:25:45;16.80;99.90
53294;DHT22;39181;53.440;5.644;2023-08-20T04:28:12;16.90;99.90
53294;DHT22;39181;53.440;5.644;2023-08-20T04:30:38;16.90;99.90
53294;DHT22;39181;53.440;5.644;2023-08-20T04:33:03;17.00;99.90
53294;DHT22;39181;53.440;5.644;2023-08-20T04:35:29;17.10;99.90
53294;DHT22;39181;53.440;5.644;2023-08-20T04:37:55;17.20;99.90
53294;DHT22;39181;53.440;5.644;2023-08-20T04:40:20;17.20;99.90
53294;DHT22;39181;53.440;5.644;2023-08-20T04:42:46;17.30;99.90
53294;DHT22;39181;53.440;5.644;2023-08-20T04:45:12;17.30;99.90
53294;DHT22;39181;53.440;5.644;2023-08-20T04:47:38;17.30;99.90
53294;DHT22;39181;53.440;5.644;2023-08-20T04:50:04;17.40;99.90
53294;DHT22;39181;53.440;5.644;2023-08-20T04:52:32;17.40;99.90
53294;DHT22;39181;53.440;5.644;2023-08-20T04:54:58;17.50;99.90
53294;DHT22;39181;53.440;5.644;2023-08-20T04:57:23;17.50;99.90
53294;DHT22;39181;53.440;5.644;2023-08-20T04:59:49;17.50;99.90
53294;DHT22;39181;53.440;5.644;2023-08-20T05:02:15;17.60;99.90
53294;DHT22;39181;53.440;5.644;2023-08-20T05:04:40;17.60;99.90
53294;DHT22;39181;53.440;5.644;2023-08-20T05:07:06;17.70;99.90
53294;DHT22;39181;53.440;5.644;2023-08-20T05:09:32;17.70;99.90
53294;DHT22;39181;53.440;5.644;2023-08-20T05:11:58;17.80;99.90
53294;DHT22;39181;53.440;5.644;2023-08-20T05:14:24;17.70;99.90
53294;DHT22;39181;53.440;5.644;2023-08-20T05:16:49;17.70;99.90
53294;DHT22;39181;53.440;5.644;2023-08-20T05:19:15;17.80;99.90
53294;DHT22;39181;53.440;5.644;2023-08-20T05:21:41;17.90;99.90
53294;DHT22;39181;53.440;5.644;2023-08-20T05:24:06;17.90;99.90
53294;DHT22;39181;53.440;5.644;2023-08-20T05:26:32;17.90;99.90
53294;DHT22;39181;53.440;5.644;2023-08-20T05:28:58;17.90;99.90
53294;DHT22;39181;53.440;5.644;2023-08-20T05:31:23;17.90;99.90
53294;DHT22;39181;53.440;5.644;2023-08-20T05:33:49;18.00;99.90
53294;DHT22;39181;53.440;5.644;2023-08-20T05:36:14;18.10;99.90
53294;DHT22;39181;53.440;5.644;2023-08-20T05:38:40;18.00;99.90
53294;DHT22;39181;53.440;5.644;2023-08-20T05:41:08;18.00;99.90
53294;DHT22;39181;53.440;5.644;2023-08-20T05:43:34;18.10;99.90
53294;DHT22;39181;53.440;5.644;2023-08-20T05:46:01;18.20;99.90
53294;DHT22;39181;53.440;5.644;2023-08-20T05:48:27;18.10;99.90
53294;DHT22;39181;53.440;5.644;2023-08-20T05:50:53;18.30;99.90
53294;DHT22;39181;53.440;5.644;2023-08-20T05:53:18;18.30;99.90
53294;DHT22;39181;53.440;5.644;2023-08-20T05:55:44;18.60;99.90
53294;DHT22;39181;53.440;5.644;2023-08-20T05:58:10;18.40;99.90
53294;DHT22;39181;53.440;5.644;2023-08-20T06:00:35;18.50;99.90
53294;DHT22;39181;53.440;5.644;2023-08-20T06:03:01;18.50;99.90
53294;DHT22;39181;53.440;5.644;2023-08-20T06:05:26;18.60;99.90
53294;DHT22;39181;53.440;5.644;2023-08-20T06:07:52;18.60;99.90
53294;DHT22;39181;53.440;5.644;2023-08-20T06:10:17;18.70;99.90
53294;DHT22;39181;53.440;5.644;2023-08-20T06:12:43;18.70;99.90
53294;DHT22;39181;53.440;5.644;2023-08-20T06:15:08;18.80;99.90
53294;DHT22;39181;53.440;5.644;2023-08-20T06:17:34;18.80;99.90
53294;DHT22;39181;53.440;5.644;2023-08-20T06:20:00;18.80;99.90
53294;DHT22;39181;53.440;5.644;2023-08-20T06:22:25;18.90;99.90
53294;DHT22;39181;53.440;5.644;2023-08-20T06:24:51;18.90;99.90
53294;DHT22;39181;53.440;5.644;2023-08-20T06:27:17;18.90;99.90
53294;DHT22;39181;53.440;5.644;2023-08-20T06:29:43;18.90;99.90
53294;DHT22;39181;53.440;5.644;2023-08-20T06:32:08;19.00;99.90
53294;DHT22;39181;53.440;5.644;2023-08-20T06:34:34;19.00;99.90
53294;DHT22;39181;53.440;5.644;2023-08-20T06:37:00;19.10;99.90
53294;DHT22;39181;53.440;5.644;2023-08-20T06:39:26;19.10;99.90
53294;DHT22;39181;53.440;5.644;2023-08-20T06:41:51;19.20;99.90
53294;DHT22;39181;53.440;5.644;2023-08-20T06:44:17;19.20;99.90
53294;DHT22;39181;53.440;5.644;2023-08-20T06:46:42;19.20;99.90
53294;DHT22;39181;53.440;5.644;2023-08-20T06:49:08;19.30;99.90
53294;DHT22;39181;53.440;5.644;2023-08-20T06:51:33;19.20;99.90
53294;DHT22;39181;53.440;5.644;2023-08-20T06:53:59;19.30;99.90
53294;DHT22;39181;53.440;5.644;2023-08-20T06:56:24;19.30;99.90
53294;DHT22;39181;53.440;5.644;2023-08-20T06:58:50;19.40;99.90
53294;DHT22;39181;53.440;5.644;2023-08-20T07:01:15;19.50;99.90
53294;DHT22;39181;53.440;5.644;2023-08-20T07:03:43;19.50;99.90
53294;DHT22;39181;53.440;5.644;2023-08-20T07:06:10;19.50;99.90
53294;DHT22;39181;53.440;5.644;2023-08-20T07:08:39;19.60;99.90
53294;DHT22;39181;53.440;5.644;2023-08-20T07:11:06;19.70;99.90
53294;DHT22;39181;53.440;5.644;2023-08-20T07:13:31;19.70;99.90
53294;DHT22;39181;53.440;5.644;2023-08-20T07:15:57;19.80;99.90
53294;DHT22;39181;53.440;5.644;2023-08-20T07:18:23;19.80;99.90
53294;DHT22;39181;53.440;5.644;2023-08-20T07:20:50;20.00;99.90
53294;DHT22;39181;53.440;5.644;2023-08-20T07:23:15;20.10;99.90
53294;DHT22;39181;53.440;5.644;2023-08-20T07:25:41;20.10;99.90
53294;DHT22;39181;53.440;5.644;2023-08-20T07:28:08;20.20;99.90
53294;DHT22;39181;53.440;5.644;2023-08-20T07:30:34;20.30;99.90
53294;DHT22;39181;53.440;5.644;2023-08-20T07:33:01;20.40;99.90
53294;DHT22;39181;53.440;5.644;2023-08-20T07:35:26;20.50;99.90
53294;DHT22;39181;53.440;5.644;2023-08-20T07:37:52;20.50;99.90
53294;DHT22;39181;53.440;5.644;2023-08-20T07:40:18;20.60;99.90
53294;DHT22;39181;53.440;5.644;2023-08-20T07:42:44;20.80;99.90
53294;DHT22;39181;53.440;5.644;2023-08-20T07:45:10;20.90;99.90
53294;DHT22;39181;53.440;5.644;2023-08-20T07:47:36;21.00;99.90
53294;DHT22;39181;53.440;5.644;2023-08-20T07:50:03;21.10;99.90
53294;DHT22;39181;53.440;5.644;2023-08-20T07:52:28;21.20;99.90
53294;DHT22;39181;53.440;5.644;2023-08-20T07:54:54;21.30;99.90
53294;DHT22;39181;53.440;5.644;2023-08-20T07:57:19;21.40;99.90
53294;DHT22;39181;53.440;5.644;2023-08-20T07:59:45;21.50;99.90
53294;DHT22;39181;53.440;5.644;2023-08-20T08:02:11;21.60;99.90
53294;DHT22;39181;53.440;5.644;2023-08-20T08:04:36;21.70;99.90
53294;DHT22;39181;53.440;5.644;2023-08-20T08:07:02;21.80;99.90
53294;DHT22;39181;53.440;5.644;2023-08-20T08:09:29;21.90;99.90
53294;DHT22;39181;53.440;5.644;2023-08-20T08:11:54;22.00;99.90
53294;DHT22;39181;53.440;5.644;2023-08-20T08:14:20;22.10;99.90
53294;DHT22;39181;53.440;5.644;2023-08-20T08:16:46;22.20;99.90
53294;DHT22;39181;53.440;5.644;2023-08-20T08:19:12;22.20;99.90
53294;DHT22;39181;53.440;5.644;2023-08-20T08:21:38;22.30;99.90
53294;DHT22;39181;53.440;5.644;2023-08-20T08:24:05;22.40;99.90
53294;DHT22;39181;53.440;5.644;2023-08-20T08:26:31;22.50;99.90
53294;DHT22;39181;53.440;5.644;2023-08-20T08:28:56;22.60;99.90
53294;DHT22;39181;53.440;5.644;2023-08-20T08:31:23;22.60;99.90
53294;DHT22;39181;53.440;5.644;2023-08-20T08:33:49;22.80;99.90
53294;DHT22;39181;53.440;5.644;2023-08-20T08:36:14;22.80;99.90
53294;DHT22;39181;53.440;5.644;2023-08-20T08:38:42;22.90;99.90
53294;DHT22;39181;53.440;5.644;2023-08-20T08:41:12;23.00;99.90
53294;DHT22;39181;53.440;5.644;2023-08-20T08:43:38;23.10;99.90
53294;DHT22;39181;53.440;5.644;2023-08-20T08:46:11;23.20;99.90
53294;DHT22;39181;53.440;5.644;2023-08-20T08:48:40;23.30;99.90
53294;DHT22;39181;53.440;5.644;2023-08-20T08:51:06;23.30;99.90
53294;DHT22;39181;53.440;5.644;2023-08-20T08:53:32;23.40;99.90
53294;DHT22;39181;53.440;5.644;2023-08-20T08:55:59;23.40;99.90
53294;DHT22;39181;53.440;5.644;2023-08-20T08:58:25;23.40;99.90
53294;DHT22;39181;53.440;5.644;2023-08-20T09:00:51;23.50;99.90
53294;DHT22;39181;53.440;5.644;2023-08-20T09:03:16;23.60;99.90
53294;DHT22;39181;53.440;5.644;2023-08-20T09:05:46;23.50;99.90
53294;DHT22;39181;53.440;5.644;2023-08-20T09:08:22;23.60;99.90
53294;DHT22;39181;53.440;5.644;2023-08-20T09:10:52;23.70;99.90
53294;DHT22;39181;53.440;5.644;2023-08-20T09:13:25;23.80;99.90
53294;DHT22;39181;53.440;5.644;2023-08-20T09:15:54;23.90;99.90
53294;DHT22;39181;53.440;5.644;2023-08-20T09:18:20;23.90;99.90
53294;DHT22;39181;53.440;5.644;2023-08-20T09:20:48;23.80;99.90
53294;DHT22;39181;53.440;5.644;2023-08-20T09:23:17;23.80;99.90
53294;DHT22;39181;53.440;5.644;2023-08-20T09:25:43;23.90;99.90
53294;DHT22;39181;53.440;5.644;2023-08-20T09:28:09;24.00;99.90
53294;DHT22;39181;53.440;5.644;2023-08-20T09:30:35;24.30;99.90
53294;DHT22;39181;53.440;5.644;2023-08-20T09:33:11;24.40;99.90
53294;DHT22;39181;53.440;5.644;2023-08-20T09:35:39;24.50;99.90
53294;DHT22;39181;53.440;5.644;2023-08-20T09:38:13;24.40;99.90
53294;DHT22;39181;53.440;5.644;2023-08-20T09:40:39;24.40;99.90
53294;DHT22;39181;53.440;5.644;2023-08-20T09:43:05;24.40;99.90
53294;DHT22;39181;53.440;5.644;2023-08-20T09:45:34;24.30;99.90
53294;DHT22;39181;53.440;5.644;2023-08-20T09:48:02;24.30;99.90
53294;DHT22;39181;53.440;5.644;2023-08-20T09:50:30;24.10;99.90
53294;DHT22;39181;53.440;5.644;2023-08-20T09:53:06;24.00;99.90
53294;DHT22;39181;53.440;5.644;2023-08-20T09:55:35;23.90;99.90
53294;DHT22;39181;53.440;5.644;2023-08-20T09:58:04;24.00;99.90
53294;DHT22;39181;53.440;5.644;2023-08-20T10:00:31;24.20;99.90
53294;DHT22;39181;53.440;5.644;2023-08-20T10:02:57;24.40;99.90
53294;DHT22;39181;53.440;5.644;2023-08-20T10:05:24;24.60;99.90
53294;DHT22;39181;53.440;5.644;2023-08-20T10:07:50;24.80;99.90
53294;DHT22;39181;53.440;5.644;2023-08-20T10:10:16;25.00;99.90
53294;DHT22;39181;53.440;5.644;2023-08-20T10:12:43;25.10;99.90
53294;DHT22;39181;53.440;5.644;2023-08-20T10:15:11;25.40;99.90
53294;DHT22;39181;53.440;5.644;2023-08-20T10:17:38;25.60;99.90
53294;DHT22;39181;53.440;5.644;2023-08-20T10:20:05;25.70;99.90
53294;DHT22;39181;53.440;5.644;2023-08-20T10:22:36;25.70;99.90
53294;DHT22;39181;53.440;5.644;2023-08-20T10:25:06;25.80;99.90
53294;DHT22;39181;53.440;5.644;2023-08-20T10:27:33;25.80;99.90
53294;DHT22;39181;53.440;5.644;2023-08-20T10:29:59;25.90;99.90
53294;DHT22;39181;53.440;5.644;2023-08-20T10:32:53;25.80;99.90
53294;DHT22;39181;53.440;5.644;2023-08-20T10:38:07;25.50;99.90
53294;DHT22;39181;53.440;5.644;2023-08-20T10:40:58;25.50;99.90
53294;DHT22;39181;53.440;5.644;2023-08-20T10:46:18;25.40;99.90
53294;DHT22;39181;53.440;5.644;2023-08-20T10:49:04;25.30;99.90
53294;DHT22;39181;53.440;5.644;2023-08-20T10:51:36;25.20;99.90
53294;DHT22;39181;53.440;5.644;2023-08-20T10:54:08;25.20;99.90
53294;DHT22;39181;53.440;5.644;2023-08-20T10:56:46;25.20;99.90
53294;DHT22;39181;53.440;5.644;2023-08-20T10:59:23;25.30;99.90
53294;DHT22;39181;53.440;5.644;2023-08-20T11:01:55;25.40;99.90
53294;DHT22;39181;53.440;5.644;2023-08-20T11:04:23;25.60;99.90
53294;DHT22;39181;53.440;5.644;2023-08-20T11:06:58;25.50;99.90
53294;DHT22;39181;53.440;5.644;2023-08-20T11:09:30;25.50;99.90
53294;DHT22;39181;53.440;5.644;2023-08-20T11:11:56;25.50;99.90
53294;DHT22;39181;53.440;5.644;2023-08-20T11:14:22;25.30;99.90
53294;DHT22;39181;53.440;5.644;2023-08-20T11:16:49;25.20;99.90
53294;DHT22;39181;53.440;5.644;2023-08-20T11:19:20;25.50;99.90
53294;DHT22;39181;53.440;5.644;2023-08-20T11:21:46;25.50;99.90
53294;DHT22;39181;53.440;5.644;2023-08-20T11:24:12;25.40;99.90
53294;DHT22;39181;53.440;5.644;2023-08-20T11:26:42;25.40;99.90
53294;DHT22;39181;53.440;5.644;2023-08-20T11:29:09;25.50;99.90
53294;DHT22;39181;53.440;5.644;2023-08-20T11:31:36;25.20;99.90
53294;DHT22;39181;53.440;5.644;2023-08-20T11:34:02;25.10;99.90
53294;DHT22;39181;53.440;5.644;2023-08-20T11:36:28;25.10;99.90
53294;DHT22;39181;53.440;5.644;2023-08-20T11:38:54;25.00;99.90
53294;DHT22;39181;53.440;5.644;2023-08-20T11:41:24;25.10;99.90
53294;DHT22;39181;53.440;5.644;2023-08-20T11:43:51;25.10;99.90
53294;DHT22;39181;53.440;5.644;2023-08-20T11:46:20;25.20;99.90
53294;DHT22;39181;53.440;5.644;2023-08-20T11:49:03;25.20;99.90
53294;DHT22;39181;53.440;5.644;2023-08-20T11:51:30;25.30;99.90
53294;DHT22;39181;53.440;5.644;2023-08-20T11:54:00;25.50;99.90
53294;DHT22;39181;53.440;5.644;2023-08-20T11:56:27;25.60;99.90
53294;DHT22;39181;53.440;5.644;2023-08-20T11:58:58;25.70;99.90
53294;DHT22;39181;53.440;5.644;2023-08-20T12:01:24;25.70;99.90
53294;DHT22;39181;53.440;5.644;2023-08-20T12:03:49;25.70;99.90
53294;DHT22;39181;53.440;5.644;2023-08-20T12:06:21;25.70;99.90
53294;DHT22;39181;53.440;5.644;2023-08-20T12:08:54;25.70;99.90
53294;DHT22;39181;53.440;5.644;2023-08-20T12:11:24;25.60;99.90
53294;DHT22;39181;53.440;5.644;2023-08-20T12:13:50;25.60;99.90
53294;DHT22;39181;53.440;5.644;2023-08-20T12:16:15;25.70;99.90
53294;DHT22;39181;53.440;5.644;2023-08-20T12:18:41;25.70;99.90
53294;DHT22;39181;53.440;5.644;2023-08-20T12:21:07;25.50;99.90
53294;DHT22;39181;53.440;5.644;2023-08-20T12:23:32;25.50;99.90
53294;DHT22;39181;53.440;5.644;2023-08-20T12:25:58;25.40;99.90
53294;DHT22;39181;53.440;5.644;2023-08-20T12:28:23;25.40;99.90
53294;DHT22;39181;53.440;5.644;2023-08-20T12:30:51;25.50;99.90
53294;DHT22;39181;53.440;5.644;2023-08-20T12:33:17;25.50;99.90
53294;DHT22;39181;53.440;5.644;2023-08-20T12:35:42;25.50;99.90
53294;DHT22;39181;53.440;5.644;2023-08-20T12:38:08;25.40;99.90
53294;DHT22;39181;53.440;5.644;2023-08-20T12:40:34;25.60;99.90
53294;DHT22;39181;53.440;5.644;2023-08-20T12:42:59;25.70;99.90
53294;DHT22;39181;53.440;5.644;2023-08-20T12:45:25;25.80;99.90
53294;DHT22;39181;53.440;5.644;2023-08-20T12:47:50;25.90;99.90
53294;DHT22;39181;53.440;5.644;2023-08-20T12:50:16;26.00;99.90
53294;DHT22;39181;53.440;5.644;2023-08-20T12:52:41;25.90;99.90
53294;DHT22;39181;53.440;5.644;2023-08-20T12:55:08;25.80;99.90
53294;DHT22;39181;53.440;5.644;2023-08-20T12:57:35;25.80;99.90
53294;DHT22;39181;53.440;5.644;2023-08-20T13:00:01;25.60;99.90
53294;DHT22;39181;53.440;5.644;2023-08-20T13:02:32;25.70;99.90
53294;DHT22;39181;53.440;5.644;2023-08-20T13:04:58;25.50;99.90
53294;DHT22;39181;53.440;5.644;2023-08-20T13:07:24;25.30;99.90
53294;DHT22;39181;53.440;5.644;2023-08-20T13:09:50;25.30;99.90
53294;DHT22;39181;53.440;5.644;2023-08-20T13:12:18;25.20;99.90
53294;DHT22;39181;53.440;5.644;2023-08-20T13:14:46;25.20;99.90
53294;DHT22;39181;53.440;5.644;2023-08-20T13:17:12;25.00;99.90
53294;DHT22;39181;53.440;5.644;2023-08-20T13:19:38;24.80;99.90
53294;DHT22;39181;53.440;5.644;2023-08-20T13:22:04;24.60;99.90
53294;DHT22;39181;53.440;5.644;2023-08-20T13:24:30;24.70;99.90
53294;DHT22;39181;53.440;5.644;2023-08-20T13:26:55;24.70;99.90
53294;DHT22;39181;53.440;5.644;2023-08-20T13:29:21;24.50;99.90
53294;DHT22;39181;53.440;5.644;2023-08-20T13:31:46;24.50;99.90
53294;DHT22;39181;53.440;5.644;2023-08-20T13:34:12;24.30;99.90
53294;DHT22;39181;53.440;5.644;2023-08-20T13:36:37;24.30;99.90
53294;DHT22;39181;53.440;5.644;2023-08-20T13:39:03;24.20;99.90
53294;DHT22;39181;53.440;5.644;2023-08-20T13:41:29;24.20;99.90
53294;DHT22;39181;53.440;5.644;2023-08-20T13:43:54;24.30;99.90
53294;DHT22;39181;53.440;5.644;2023-08-20T13:46:20;24.10;99.90
53294;DHT22;39181;53.440;5.644;2023-08-20T13:48:46;24.10;99.90
53294;DHT22;39181;53.440;5.644;2023-08-20T13:51:12;23.90;99.90
53294;DHT22;39181;53.440;5.644;2023-08-20T13:53:37;23.90;99.90
53294;DHT22;39181;53.440;5.644;2023-08-20T13:56:03;23.90;99.90
53294;DHT22;39181;53.440;5.644;2023-08-20T13:58:28;23.80;99.90
53294;DHT22;39181;53.440;5.644;2023-08-20T14:00:54;23.70;99.90
53294;DHT22;39181;53.440;5.644;2023-08-20T14:03:19;23.60;99.90
53294;DHT22;39181;53.440;5.644;2023-08-20T14:05:45;23.50;99.90
53294;DHT22;39181;53.440;5.644;2023-08-20T14:08:11;23.40;99.90
53294;DHT22;39181;53.440;5.644;2023-08-20T14:10:36;23.40;99.90
53294;DHT22;39181;53.440;5.644;2023-08-20T14:13:02;23.40;99.90
53294;DHT22;39181;53.440;5.644;2023-08-20T14:15:28;23.40;99.90
53294;DHT22;39181;53.440;5.644;2023-08-20T14:17:54;23.40;99.90
53294;DHT22;39181;53.440;5.644;2023-08-20T14:20:19;23.40;99.90
53294;DHT22;39181;53.440;5.644;2023-08-20T14:22:45;23.50;99.90
53294;DHT22;39181;53.440;5.644;2023-08-20T14:25:10;23.40;99.90
53294;DHT22;39181;53.440;5.644;2023-08-20T14:27:36;23.40;99.90
53294;DHT22;39181;53.440;5.644;2023-08-20T14:30:01;23.40;99.90
53294;DHT22;39181;53.440;5.644;2023-08-20T14:32:28;23.40;99.90
53294;DHT22;39181;53.440;5.644;2023-08-20T14:34:53;23.40;99.90
53294;DHT22;39181;53.440;5.644;2023-08-20T14:37:19;23.30;99.90
53294;DHT22;39181;53.440;5.644;2023-08-20T14:39:44;23.30;99.90
53294;DHT22;39181;53.440;5.644;2023-08-20T14:42:10;23.30;99.90
53294;DHT22;39181;53.440;5.644;2023-08-20T14:44:35;23.20;99.90
53294;DHT22;39181;53.440;5.644;2023-08-20T14:47:01;23.30;99.90
53294;DHT22;39181;53.440;5.644;2023-08-20T14:49:27;23.20;99.90
53294;DHT22;39181;53.440;5.644;2023-08-20T14:51:54;23.00;99.90
53294;DHT22;39181;53.440;5.644;2023-08-20T14:54:20;23.10;99.90
53294;DHT22;39181;53.440;5.644;2023-08-20T14:56:45;23.10;99.90
53294;DHT22;39181;53.440;5.644;2023-08-20T14:59:11;23.10;99.90
53294;DHT22;39181;53.440;5.644;2023-08-20T15:01:36;23.00;99.90
53294;DHT22;39181;53.440;5.644;2023-08-20T15:04:02;23.00;99.90
53294;DHT22;39181;53.440;5.644;2023-08-20T15:06:28;23.00;99.90
53294;DHT22;39181;53.440;5.644;2023-08-20T15:08:53;22.90;99.90
53294;DHT22;39181;53.440;5.644;2023-08-20T15:11:19;23.00;99.90
53294;DHT22;39181;53.440;5.644;2023-08-20T15:13:44;23.00;99.90
53294;DHT22;39181;53.440;5.644;2023-08-20T15:16:10;23.00;99.90
53294;DHT22;39181;53.440;5.644;2023-08-20T15:18:36;23.00;99.90
53294;DHT22;39181;53.440;5.644;2023-08-20T15:21:01;23.00;99.90
53294;DHT22;39181;53.440;5.644;2023-08-20T15:23:28;23.00;99.90
53294;DHT22;39181;53.440;5.644;2023-08-20T15:25:54;22.90;99.90
53294;DHT22;39181;53.440;5.644;2023-08-20T15:28:21;23.00;99.90
53294;DHT22;39181;53.440;5.644;2023-08-20T15:30:48;22.90;99.90
53294;DHT22;39181;53.440;5.644;2023-08-20T15:33:14;22.90;99.90
53294;DHT22;39181;53.440;5.644;2023-08-20T15:35:40;23.00;99.90
53294;DHT22;39181;53.440;5.644;2023-08-20T15:38:05;22.90;99.90
53294;DHT22;39181;53.440;5.644;2023-08-20T15:40:31;23.00;99.90